McHenry, MD (21541)

11:10 AM EST on January 22, 2017 (GMT -0500)
Garrett College/Deep Creek Lake | | Change Station

Elev 2600 ft 39.56 °N, 79.34 °W | Updated 55 seconds ago

Mostly Cloudy
Mostly Cloudy
49.6 °F
Feels Like 46 °F
N
9.0
Wind Variable Wind from SE
Gusts 14.0 mph

Today
High -- | Low -- °F
--% Chance of Precip.
Yesterday
High -- | Low -- °F
Precip. -- in
Pressure 29.64 in
Visibility 10.0 miles
Clouds Overcast 7500 ft
Windchill 46 °F
Dew Point 47 °F
Humidity 92%
Rainfall 0.00 in
Snow Depth Not available.
7:32 AM 5:26 PM
Waning Crescent, 25% visible
METAR KMGW 221553Z 31003KT 10SM OVC075 12/08 A2964 RMK AO2 SLP035 T01170078
Pressure 29.64 in
Visibility 10.0 miles
Clouds Overcast 7500 ft
Windchill 46 °F
Dew Point 47 °F
Humidity 92%
Rainfall 0.00 in
Snow Depth Not available.
7:32 AM 5:26 PM
Waning Crescent, 25% visible
METAR KMGW 221553Z 31003KT 10SM OVC075 12/08 A2964 RMK AO2 SLP035 T01170078

Get Your Daily Forecast Email!

Thanks for signing up!

Be on the lookout for a verification email in your inbox.

You'll start receiving the daily forecast at 8 AM.

×

10-Day Weather Forecast

Almanac

Astronomy

Jan. 22, 2017 Rise Set
Actual Time
Civil Twilight
Nautical Twilight
Astronomical Twilight
Moon
Length of Visible Light
Length of Day
Tomorrow will be .
, % of the Moon is Illuminated

Today's Extremes

State Highs State Lows

Community

WunderPhotos

Upload Photos

1,962,540 photos uploaded!

WunderBlog® & News

Nearby

Air Quality

  Air Quality AQ Index Pollutant
Not available.

Snow Depth

Station Depth Elevation

Earthquake Activity

City Distance Mag. Time & Date
Minimum magnitude displayed is 2.5.

Coastal Water Temperatures

Place Temperature

Stations

Nearby Weather Stations

Station Location Temp. Windchill Dew Point Humidity Wind Precip. Elev Updated Type
                   

Watches & Warnings

There are currently no watches in effect.